createdAt,value
2017-08-23T00:00:55.442Z,76.4
2017-08-23T00:01:54.523Z,76.5
2017-08-23T00:02:54.208Z,76.5
2017-08-23T00:03:53.297Z,76.6
2017-08-23T00:04:52.493Z,76.8
2017-08-23T00:05:51.686Z,76.8
2017-08-23T00:06:50.886Z,76.8
2017-08-23T00:07:49.970Z,76.8
2017-08-23T00:08:49.157Z,76.8
2017-08-23T00:09:48.402Z,76.9
2017-08-23T00:10:47.599Z,76.8
2017-08-23T00:11:46.799Z,76.8
2017-08-23T00:12:46.003Z,76.8
2017-08-23T00:13:45.196Z,76.7
2017-08-23T00:14:44.151Z,76.9
2017-08-23T00:15:43.495Z,77
2017-08-23T00:17:41.839Z,77
2017-08-23T00:18:40.920Z,77.1
2017-08-23T00:19:40.002Z,77.3
2017-08-23T00:20:39.701Z,77.4
2017-08-23T00:21:38.893Z,77.4
2017-08-23T00:22:37.964Z,77.5
2017-08-23T00:23:08.478Z,77.5
2017-08-23T00:23:38.865Z,77.6
2017-08-23T00:24:09.254Z,77.6
2017-08-23T00:25:35.637Z,77.7
2017-08-23T00:26:34.708Z,77.8
2017-08-23T00:27:33.769Z,77.9
2017-08-23T00:28:32.963Z,78.1
2017-08-23T00:30:31.549Z,78.1
2017-08-23T00:31:30.742Z,78.1
2017-08-23T00:32:29.933Z,78.1
2017-08-23T00:33:29.135Z,78.2
2017-08-23T00:34:28.325Z,78.2
2017-08-23T00:35:27.515Z,78.3
2017-08-23T00:36:26.710Z,78.4
2017-08-23T00:37:25.907Z,78.5
2017-08-23T00:38:25.102Z,78.4
2017-08-23T00:39:24.188Z,78.6
2017-08-23T00:40:23.382Z,78.6
2017-08-23T00:41:22.578Z,78.6
2017-08-23T00:42:21.529Z,78.6
2017-08-23T00:43:21.101Z,78.6
2017-08-23T00:44:20.290Z,78.6
2017-08-23T00:45:19.360Z,78.7
2017-08-23T00:46:18.562Z,78.6
2017-08-23T00:48:16.631Z,78.4
2017-08-23T00:49:15.858Z,78.4
2017-08-23T00:50:14.938Z,78.4
2017-08-23T00:51:14.131Z,78.3
2017-08-23T00:52:14.756Z,78.2
2017-08-23T00:53:12.708Z,78.1
2017-08-23T00:54:11.656Z,78.3
2017-08-23T00:55:11.110Z,78.2
2017-08-23T00:56:10.187Z,78.3
2017-08-23T00:58:08.418Z,78.4
2017-08-23T01:00:06.922Z,78.4
2017-08-23T01:01:05.884Z,78.4
2017-08-23T01:02:05.593Z,78.4
2017-08-23T01:03:04.550Z,78.5
2017-08-23T01:04:03.744Z,78.5
2017-08-23T01:05:02.944Z,78.5
2017-08-23T01:06:01.914Z,78.6
2017-08-23T01:07:01.110Z,78.7
2017-08-23T01:08:00.308Z,78.7
2017-08-23T01:08:59.497Z,78.8
2017-08-23T01:09:58.569Z,78.8
2017-08-23T01:10:58.259Z,78.8
2017-08-23T01:12:56.341Z,79
2017-08-23T01:13:55.540Z,79.2
2017-08-23T01:14:54.723Z,79.3
2017-08-23T01:15:53.902Z,79.4
2017-08-23T01:16:53.384Z,79.5
2017-08-23T01:17:23.657Z,79.5
2017-08-23T01:18:51.535Z,79.7
2017-08-23T01:19:50.375Z,79.6
2017-08-23T01:20:49.843Z,79.6
2017-08-23T01:21:48.867Z,79.5
2017-08-23T01:22:48.443Z,79.5
2017-08-23T01:23:47.532Z,79.4
2017-08-23T01:24:46.749Z,79.4
2017-08-23T01:25:45.953Z,79.4
2017-08-23T01:26:45.030Z,79.5
2017-08-23T01:27:43.867Z,79.5
2017-08-23T01:28:43.560Z,79.6
2017-08-23T01:29:42.643Z,79.7
2017-08-23T01:30:41.739Z,79.6
2017-08-23T01:31:40.720Z,79.7
2017-08-23T01:32:39.798Z,79.7
2017-08-23T01:33:39.134Z,79.8
2017-08-23T01:34:38.325Z,79.8
2017-08-23T01:35:37.393Z,79.8
2017-08-23T01:36:36.857Z,79.8
2017-08-23T01:37:36.048Z,79.8
2017-08-23T01:38:35.133Z,79.8
2017-08-23T01:39:34.337Z,79.9
2017-08-23T01:40:33.527Z,80.1
2017-08-23T01:41:32.602Z,80.1
2017-08-23T01:42:31.809Z,80.5
2017-08-23T01:43:30.881Z,80.4
2017-08-23T01:44:30.088Z,80.2
2017-08-23T01:45:29.288Z,80.3
2017-08-23T01:46:28.504Z,80.1
2017-08-23T01:47:27.696Z,80.1
2017-08-23T01:47:58.080Z,80.1
2017-08-23T01:48:28.854Z,80.1
2017-08-23T01:48:59.373Z,80.1
2017-08-23T01:49:29.880Z,80.1
2017-08-23T01:50:00.266Z,80.1
2017-08-23T01:51:24.616Z,80
2017-08-23T01:52:23.807Z,79.9
2017-08-23T01:53:23.561Z,79.9
2017-08-23T01:54:22.253Z,79.9
2017-08-23T01:55:21.452Z,79.8
2017-08-23T01:56:20.653Z,79.8
2017-08-23T01:57:19.724Z,79.8
2017-08-23T01:58:18.799Z,79.9
2017-08-23T01:59:17.983Z,79.8
2017-08-23T02:00:17.169Z,79.8
2017-08-23T02:01:16.366Z,80
2017-08-23T02:02:15.576Z,80
2017-08-23T02:03:14.670Z,80.1
2017-08-23T02:04:13.623Z,80.3
2017-08-23T02:05:12.693Z,80.3
2017-08-23T02:06:12.038Z,80.5
2017-08-23T02:07:11.230Z,80.5
2017-08-23T02:08:10.424Z,80.5
2017-08-23T02:09:09.486Z,80.7
2017-08-23T02:10:08.694Z,80.7
2017-08-23T02:11:07.880Z,80.7
2017-08-23T02:12:07.065Z,80.9
2017-08-23T02:13:06.650Z,80.9
2017-08-23T02:14:05.849Z,81.1
2017-08-23T02:15:05.051Z,81.1
2017-08-23T02:16:03.738Z,81.1
2017-08-23T02:17:02.935Z,81.2
2017-08-23T02:18:02.030Z,81.6
2017-08-23T02:19:01.726Z,82.2
2017-08-23T02:20:00.940Z,82
2017-08-23T02:20:59.629Z,81.9
2017-08-23T02:21:58.826Z,82.1
2017-08-23T02:22:58.026Z,81.9
2017-08-23T02:23:57.219Z,81.8
2017-08-23T02:24:56.676Z,81.9
2017-08-23T02:25:55.879Z,81.9
2017-08-23T02:26:55.089Z,82
2017-08-23T02:27:54.289Z,81.9
2017-08-23T02:28:53.493Z,81.9
2017-08-23T02:29:52.709Z,82.2
2017-08-23T02:30:51.918Z,82.3
2017-08-23T02:31:50.387Z,82.1
2017-08-23T02:32:50.377Z,82.2
2017-08-23T02:33:48.957Z,82.2
2017-08-23T02:34:48.157Z,82.3
2017-08-23T02:35:47.224Z,82.2
2017-08-23T02:36:46.910Z,82.4
2017-08-23T02:37:46.100Z,82.4
2017-08-23T02:38:45.300Z,82.4
2017-08-23T02:39:44.254Z,82.4
2017-08-23T02:40:14.770Z,82.4
2017-08-23T02:40:45.148Z,82.4
2017-08-23T02:41:42.593Z,82.4
2017-08-23T02:42:41.563Z,82.4
2017-08-23T02:43:41.142Z,82.4
2017-08-23T02:44:40.213Z,82.4
2017-08-23T02:45:39.403Z,82.3
2017-08-23T02:46:38.510Z,82.3
2017-08-23T02:47:37.581Z,82.2
2017-08-23T02:48:36.783Z,82.1
2017-08-23T02:49:35.845Z,82.1
2017-08-23T02:50:35.034Z,82.1
2017-08-23T02:51:34.609Z,82.1
2017-08-23T02:52:33.795Z,82.2
2017-08-23T02:53:32.981Z,82.2
2017-08-23T02:54:31.953Z,82.2
2017-08-23T02:55:31.143Z,82.2
2017-08-23T02:56:30.330Z,82.3
2017-08-23T02:57:29.389Z,82.2
2017-08-23T02:58:28.467Z,82.2
2017-08-23T02:59:27.647Z,82.4
2017-08-23T03:00:26.831Z,82.3
2017-08-23T03:01:26.013Z,82.3
2017-08-23T03:02:25.204Z,82.4
2017-08-23T03:03:24.399Z,82.4
2017-08-23T03:04:23.587Z,82.4
2017-08-23T03:05:22.646Z,82.3
2017-08-23T03:06:22.207Z,82.2
2017-08-23T03:07:21.047Z,82.2
2017-08-23T03:08:20.222Z,82.2
2017-08-23T03:09:19.406Z,82.1
2017-08-23T03:10:18.607Z,82.1
2017-08-23T03:11:18.057Z,82.1
2017-08-23T03:12:17.235Z,82.2
2017-08-23T03:13:16.295Z,82.2
2017-08-23T03:14:15.375Z,82.2
2017-08-23T03:15:14.569Z,82.1
2017-08-23T03:16:13.758Z,82.2
2017-08-23T03:17:13.218Z,82.1
2017-08-23T03:18:12.297Z,82.2
2017-08-23T03:19:11.491Z,82.3
2017-08-23T03:20:10.545Z,82.3
2017-08-23T03:21:09.610Z,82.4
2017-08-23T03:22:09.062Z,82.4
2017-08-23T03:23:08.247Z,82.5
2017-08-23T03:24:07.329Z,82.6
2017-08-23T03:25:06.397Z,82.6
2017-08-23T03:26:05.462Z,82.6
2017-08-23T03:27:04.415Z,82.4
2017-08-23T03:28:03.976Z,82.5
2017-08-23T03:29:03.149Z,82.6
2017-08-23T03:30:02.358Z,82.5
2017-08-23T03:31:01.563Z,82.4
2017-08-23T03:32:00.758Z,82.4
2017-08-23T03:32:59.838Z,82.5
2017-08-23T03:33:58.901Z,82.4
2017-08-23T03:34:58.088Z,82.5
2017-08-23T03:35:57.275Z,82.5
2017-08-23T03:36:56.459Z,82.5
2017-08-23T03:37:55.637Z,82.5
2017-08-23T03:38:54.724Z,82.5
2017-08-23T03:39:53.662Z,82.5
2017-08-23T03:40:53.231Z,82.4
2017-08-23T03:41:52.423Z,82.4
2017-08-23T03:43:50.375Z,82.4
2017-08-23T03:44:50.065Z,82.3
2017-08-23T03:45:49.246Z,82.2
2017-08-23T03:46:48.441Z,82.2
2017-08-23T03:47:47.633Z,82.2
2017-08-23T03:48:46.819Z,82.1
2017-08-23T03:49:45.376Z,82
2017-08-23T03:50:45.097Z,82
2017-08-23T03:51:43.922Z,82
2017-08-23T03:52:43.100Z,82
2017-08-23T03:53:42.555Z,82
2017-08-23T03:54:41.755Z,82
2017-08-23T03:55:40.826Z,82
2017-08-23T03:56:40.014Z,82.1
2017-08-23T03:57:39.082Z,82.1
2017-08-23T03:58:38.138Z,82.2
2017-08-23T03:59:37.325Z,82.3
2017-08-23T04:00:36.392Z,82.5
2017-08-23T04:01:35.346Z,82.6
2017-08-23T04:02:34.677Z,82.7
2017-08-23T04:03:34.137Z,82.6
2017-08-23T04:04:33.209Z,82.7
2017-08-23T04:05:32.383Z,82.6
2017-08-23T04:06:31.564Z,82.5
2017-08-23T04:07:30.633Z,82.5
2017-08-23T04:08:29.820Z,82.5
2017-08-23T04:09:29.000Z,82.5
2017-08-23T04:10:28.202Z,82.6
2017-08-23T04:11:27.290Z,82.7
2017-08-23T04:12:26.478Z,82.8
2017-08-23T04:13:25.662Z,82.9
2017-08-23T04:14:24.847Z,82.9
2017-08-23T04:15:24.026Z,82.9
2017-08-23T04:16:23.098Z,83
2017-08-23T04:17:22.683Z,83
2017-08-23T04:18:21.755Z,83.1
2017-08-23T04:19:20.829Z,83.2
2017-08-23T04:20:19.917Z,83.3
2017-08-23T04:21:19.105Z,83.3
2017-08-23T04:22:18.178Z,83.3
2017-08-23T04:23:17.362Z,83.4
2017-08-23T04:24:16.801Z,83.3
2017-08-23T04:25:15.979Z,83.3
2017-08-23T04:26:15.044Z,83.3
2017-08-23T04:27:14.124Z,83.4
2017-08-23T04:28:13.197Z,83.4
2017-08-23T04:29:12.382Z,83.4
2017-08-23T04:30:11.630Z,83.6
2017-08-23T04:31:10.817Z,83.6
2017-08-23T04:32:09.526Z,83.6
2017-08-23T04:33:09.098Z,83.6
2017-08-23T04:34:08.169Z,83.6
2017-08-23T04:35:07.252Z,83.6
2017-08-23T04:36:06.831Z,83.5
2017-08-23T04:38:05.171Z,83.6
2017-08-23T04:39:04.357Z,83.6
2017-08-23T04:40:03.200Z,83.7
2017-08-23T04:41:02.401Z,83.7
2017-08-23T04:42:01.976Z,83.7
2017-08-23T04:43:01.043Z,83.8
2017-08-23T04:44:00.127Z,83.7
2017-08-23T04:44:59.194Z,83.8
2017-08-23T04:45:58.372Z,83.8
2017-08-23T04:46:57.543Z,83.8
2017-08-23T04:47:56.613Z,83.8
2017-08-23T04:48:55.689Z,83.7
2017-08-23T04:50:54.262Z,83.7
2017-08-23T04:51:53.440Z,83.6
2017-08-23T04:52:52.510Z,83.5
2017-08-23T04:53:51.699Z,83.4
2017-08-23T04:54:50.766Z,83
2017-08-23T04:55:49.953Z,82.7
2017-08-23T04:56:49.536Z,82.3
2017-08-23T04:57:48.623Z,82.3
2017-08-23T04:58:47.707Z,82
2017-08-23T04:59:46.889Z,82
2017-08-23T05:00:46.061Z,81.8
2017-08-23T05:01:45.246Z,81.4
2017-08-23T05:02:44.319Z,81.2
2017-08-23T05:03:43.393Z,80.8
2017-08-23T05:04:42.861Z,80.7
2017-08-23T05:05:41.924Z,80.4
2017-08-23T05:07:39.996Z,80.3
2017-08-23T05:08:39.562Z,80.3
2017-08-23T05:09:38.754Z,80.1
2017-08-23T05:10:37.313Z,79.8
2017-08-23T05:11:37.006Z,79.6
2017-08-23T05:12:35.953Z,79.5
2017-08-23T05:13:35.141Z,79.4
2017-08-23T05:14:34.083Z,79.4
2017-08-23T05:15:33.779Z,79.1
2017-08-23T05:16:32.889Z,79
2017-08-23T05:17:32.064Z,79
2017-08-23T05:18:31.129Z,79
2017-08-23T05:19:30.312Z,79.3
2017-08-23T05:20:29.503Z,79.3
2017-08-23T05:21:28.693Z,79.4
2017-08-23T05:22:27.774Z,79.5
2017-08-23T05:23:26.968Z,79.4
2017-08-23T05:24:26.036Z,79.4
2017-08-23T05:25:25.226Z,79.4
2017-08-23T05:26:24.407Z,79.4
2017-08-23T05:27:23.595Z,79.3
2017-08-23T05:28:22.778Z,79.2
2017-08-23T05:29:21.850Z,79
2017-08-23T05:30:21.035Z,78.8
2017-08-23T05:31:20.110Z,78.8
2017-08-23T05:32:19.293Z,78.1
2017-08-23T05:33:18.484Z,77.5
2017-08-23T05:34:17.550Z,77.1
2017-08-23T05:34:48.055Z,77.1
2017-08-23T05:35:18.484Z,76.6
2017-08-23T05:35:48.981Z,76.6
2017-08-23T05:36:19.355Z,76.4
2017-08-23T05:36:49.626Z,76.4
2017-08-23T05:37:20.009Z,75.8
2017-08-23T05:38:14.676Z,75.5
2017-08-23T05:39:13.749Z,75.4
2017-08-23T05:40:12.696Z,74.7
2017-08-23T05:41:11.877Z,74.5
2017-08-23T05:42:10.839Z,74
2017-08-23T05:43:10.406Z,74
2017-08-23T05:44:09.480Z,74
2017-08-23T05:45:08.665Z,73
2017-08-23T05:47:07.143Z,72.5
2017-08-23T05:48:06.209Z,72.6
2017-08-23T05:49:05.299Z,72.1
2017-08-23T05:50:04.361Z,71.6
2017-08-23T05:51:03.682Z,71.3
2017-08-23T05:52:02.756Z,71
2017-08-23T05:53:02.225Z,70.7
2017-08-23T05:54:01.308Z,70.3
2017-08-23T05:55:00.505Z,70
2017-08-23T05:55:59.329Z,69.6
2017-08-23T05:56:58.398Z,69.4
2017-08-23T05:57:58.090Z,69.1
2017-08-23T05:58:57.271Z,68.8
2017-08-23T05:59:56.230Z,68.8
2017-08-23T06:00:55.288Z,68.8
2017-08-23T06:01:54.739Z,68.5
2017-08-23T06:02:53.922Z,68.1
2017-08-23T06:03:53.107Z,68.1
2017-08-23T06:04:52.296Z,67.5
2017-08-23T06:05:51.484Z,67.5
2017-08-23T06:06:50.673Z,67.4
2017-08-23T06:07:49.736Z,67.4
2017-08-23T06:08:48.809Z,67.4
2017-08-23T06:09:48.003Z,67.2
2017-08-23T06:10:47.191Z,66.8
2017-08-23T06:11:46.369Z,66.8
2017-08-23T06:12:45.562Z,66.3
2017-08-23T06:13:44.753Z,66
2017-08-23T06:15:43.330Z,65.6
2017-08-23T06:16:42.520Z,65.6
2017-08-23T06:17:41.200Z,65.6
2017-08-23T06:18:40.398Z,65.1
2017-08-23T06:19:39.587Z,65.2
2017-08-23T06:20:38.774Z,64.9
2017-08-23T06:21:38.344Z,64.7
2017-08-23T06:22:37.419Z,64.4
2017-08-23T06:23:36.482Z,64.4
2017-08-23T06:24:35.550Z,64.1
2017-08-23T06:25:35.123Z,63.6
2017-08-23T06:26:34.187Z,63.3
2017-08-23T06:27:33.258Z,62.8
2017-08-23T06:28:32.431Z,62.7
2017-08-23T06:29:31.493Z,62.5
2017-08-23T06:30:30.565Z,62.9
2017-08-23T06:31:30.245Z,62.8
2017-08-23T06:32:29.323Z,63
2017-08-23T06:33:28.507Z,62.2
2017-08-23T06:34:27.579Z,62.2
2017-08-23T06:35:26.651Z,62.2
2017-08-23T06:36:25.851Z,62
2017-08-23T06:37:24.922Z,62.1
2017-08-23T06:38:24.500Z,61.7
2017-08-23T06:40:22.578Z,60.8
2017-08-23T06:42:21.156Z,60.8
2017-08-23T06:43:20.233Z,60.9
2017-08-23T06:44:19.410Z,61
2017-08-23T06:45:18.628Z,60.9
2017-08-23T06:46:17.809Z,60.8
2017-08-23T06:47:17.000Z,60.4
2017-08-23T06:48:16.198Z,60.1
2017-08-23T06:49:15.409Z,60
2017-08-23T06:50:14.479Z,60.2
2017-08-23T06:52:12.949Z,59.7
2017-08-23T06:53:12.018Z,59.6
2017-08-23T06:54:11.219Z,59.5
2017-08-23T06:55:10.800Z,60.1
2017-08-23T06:56:10.004Z,60.1
2017-08-23T06:57:09.078Z,58.5
2017-08-23T06:58:08.166Z,58.5
2017-08-23T06:59:07.128Z,57.8
2017-08-23T07:00:06.158Z,58.1
2017-08-23T07:01:05.620Z,58.9
2017-08-23T07:02:05.080Z,59
2017-08-23T07:03:04.031Z,58.9
2017-08-23T07:04:03.112Z,58.2
2017-08-23T07:05:02.179Z,58.2
2017-08-23T07:06:01.883Z,58.4
2017-08-23T07:07:00.946Z,58.7
2017-08-23T07:08:00.016Z,58.1
2017-08-23T07:08:59.086Z,58.1
2017-08-23T07:09:58.550Z,57.8
2017-08-23T07:10:57.629Z,56.6
2017-08-23T07:11:56.688Z,56.8
2017-08-23T07:12:55.890Z,56.4
2017-08-23T07:13:54.973Z,56.2
2017-08-23T07:14:54.534Z,56.3
2017-08-23T07:15:53.733Z,56.6
2017-08-23T07:16:52.926Z,56.5
2017-08-23T07:17:52.264Z,55.8
2017-08-23T07:18:51.457Z,55.5
2017-08-23T07:19:50.649Z,55.4
2017-08-23T07:21:48.721Z,54.5
2017-08-23T07:22:19.097Z,54.5
2017-08-23T07:23:47.475Z,53.9
2017-08-23T07:24:46.659Z,53.7
2017-08-23T07:25:45.844Z,53.7
2017-08-23T07:27:44.991Z,53.4
2017-08-23T07:28:43.169Z,53.2
2017-08-23T07:29:42.869Z,53.5
2017-08-23T07:30:41.941Z,52.5
2017-08-23T07:31:41.122Z,51.9
2017-08-23T07:32:40.305Z,51.6
2017-08-23T07:33:39.495Z,51.6
2017-08-23T07:34:38.706Z,50.6
2017-08-23T07:35:37.781Z,51
2017-08-23T07:36:36.975Z,50.9
2017-08-23T07:37:36.036Z,51
2017-08-23T07:38:35.503Z,51
2017-08-23T07:39:34.570Z,51
2017-08-23T07:40:33.776Z,51.1
2017-08-23T07:41:32.848Z,50.9
2017-08-23T07:43:31.681Z,50.2
2017-08-23T07:44:30.750Z,49.8
2017-08-23T07:45:30.207Z,49.3
2017-08-23T07:47:28.286Z,49.7
2017-08-23T07:48:27.867Z,48.8
2017-08-23T07:49:26.942Z,48.8
2017-08-23T07:50:26.137Z,49
2017-08-23T07:51:25.109Z,49.2
2017-08-23T07:52:24.687Z,49.2
2017-08-23T07:53:23.869Z,49.3
2017-08-23T07:54:23.048Z,49.3
2017-08-23T07:55:22.240Z,50.4
2017-08-23T07:56:21.430Z,49.8
2017-08-23T07:57:20.499Z,50.1
2017-08-23T07:58:19.682Z,49.2
2017-08-23T07:59:19.146Z,49.2
2017-08-23T08:00:18.345Z,49.2
2017-08-23T08:01:17.415Z,49
2017-08-23T08:02:16.602Z,48.6
2017-08-23T08:03:16.072Z,48.9
2017-08-23T08:04:15.135Z,49
2017-08-23T08:05:14.315Z,48.3
2017-08-23T08:06:13.521Z,48.6
2017-08-23T08:07:13.214Z,48.5
2017-08-23T08:08:12.279Z,47.7
2017-08-23T08:09:11.365Z,47.7
2017-08-23T08:10:10.547Z,47.6
2017-08-23T08:12:09.008Z,47.5
2017-08-23T08:13:08.461Z,46.2
2017-08-23T08:14:07.539Z,46.6
2017-08-23T08:15:06.248Z,46.7
2017-08-23T08:16:05.944Z,46.7
2017-08-23T08:17:05.542Z,46.7
2017-08-23T08:18:04.641Z,45.9
2017-08-23T08:19:03.702Z,46.1
2017-08-23T08:21:02.288Z,45.8
2017-08-23T08:22:01.243Z,45.6
2017-08-23T08:23:00.918Z,44.7
2017-08-23T08:23:59.993Z,44.5
2017-08-23T08:24:59.066Z,44.6
2017-08-23T08:25:58.642Z,45.1
2017-08-23T08:26:57.728Z,43.5
2017-08-23T08:27:56.908Z,42.9
2017-08-23T08:28:55.857Z,43
2017-08-23T08:29:55.312Z,43.1
2017-08-23T08:30:54.888Z,43.3
2017-08-23T08:31:54.081Z,42.9
2017-08-23T08:32:53.170Z,42.9
2017-08-23T08:33:52.344Z,42.9
2017-08-23T08:34:51.528Z,43.6
2017-08-23T08:35:50.723Z,43.1
2017-08-23T08:36:49.575Z,43.8
2017-08-23T08:37:49.162Z,43.9
2017-08-23T08:38:48.732Z,44.5
2017-08-23T08:39:47.929Z,44.2
2017-08-23T08:40:47.127Z,44.9
2017-08-23T08:41:46.317Z,44.9
2017-08-23T08:42:45.882Z,43.7
2017-08-23T08:43:45.066Z,43.5
2017-08-23T08:44:44.128Z,43.7
2017-08-23T08:45:43.192Z,43.2
2017-08-23T08:46:43.206Z,42.9
2017-08-23T08:47:41.647Z,43
2017-08-23T08:48:41.335Z,42.7
2017-08-23T08:49:40.518Z,42.7
2017-08-23T08:50:39.504Z,42.7
2017-08-23T08:51:39.192Z,42.8
2017-08-23T08:52:38.257Z,42.1
2017-08-23T08:53:37.439Z,42.5
2017-08-23T08:54:36.629Z,41.5
2017-08-23T08:55:35.814Z,41.8
2017-08-23T08:56:35.091Z,41.8
2017-08-23T08:57:34.274Z,42.4
2017-08-23T08:59:33.118Z,41.3
2017-08-23T09:00:32.196Z,41.3
2017-08-23T09:01:31.256Z,42
2017-08-23T09:02:30.829Z,40.4
2017-08-23T09:03:30.295Z,39
2017-08-23T09:05:28.527Z,37.7
2017-08-23T09:06:28.097Z,37.7
2017-08-23T09:07:27.177Z,37.7
2017-08-23T09:08:26.509Z,37.4
2017-08-23T09:09:25.698Z,38.5
2017-08-23T09:10:24.902Z,38.5
2017-08-23T09:11:24.095Z,39.4
2017-08-23T09:12:23.301Z,38.6
2017-08-23T09:13:22.256Z,38.9
2017-08-23T09:14:21.836Z,39.2
2017-08-23T09:15:21.531Z,38.9
2017-08-23T09:16:20.727Z,37.8
2017-08-23T09:17:19.669Z,37.9
2017-08-23T09:18:18.950Z,38.1
2017-08-23T09:19:18.510Z,37.4
2017-08-23T09:20:17.225Z,37.6
2017-08-23T09:21:16.697Z,38.3
2017-08-23T09:22:16.407Z,37
2017-08-23T09:23:15.243Z,37
2017-08-23T09:24:14.938Z,37
2017-08-23T09:25:14.038Z,37.2
2017-08-23T09:26:13.472Z,37.5
2017-08-23T09:27:12.534Z,37.7
2017-08-23T09:28:11.717Z,38
2017-08-23T09:29:11.401Z,38.2
2017-08-23T09:30:10.342Z,38.3
2017-08-23T09:31:09.527Z,38.1
2017-08-23T09:32:08.989Z,38.6
2017-08-23T09:33:08.179Z,38.9
2017-08-23T09:34:07.263Z,39.4
2017-08-23T09:35:06.877Z,39.8
2017-08-23T09:36:05.940Z,39.5
2017-08-23T09:37:05.397Z,39.4
2017-08-23T09:38:04.978Z,39.7
2017-08-23T09:38:35.488Z,39.7
2017-08-23T09:39:05.752Z,39.3
2017-08-23T09:40:03.203Z,39.3
2017-08-23T09:41:02.790Z,39.3
2017-08-23T09:42:01.974Z,39.6
2017-08-23T09:43:01.059Z,39.9
2017-08-23T09:44:00.128Z,41.1
2017-08-23T09:44:59.820Z,41.4
2017-08-23T09:45:58.780Z,42.1
2017-08-23T09:47:57.863Z,42.6
2017-08-23T09:48:56.924Z,42.8
2017-08-23T09:49:56.107Z,43.2
2017-08-23T09:50:55.675Z,42.8
2017-08-23T09:51:54.622Z,42.9
2017-08-23T09:52:54.296Z,42.6
2017-08-23T09:53:53.363Z,43.7
2017-08-23T09:54:52.432Z,43.4
2017-08-23T09:55:51.903Z,43.6
2017-08-23T09:56:51.096Z,43.6
2017-08-23T09:57:50.664Z,43.6
2017-08-23T09:58:49.724Z,43.8
2017-08-23T09:59:49.297Z,43.1
2017-08-23T10:00:48.492Z,43.8
2017-08-23T10:01:47.556Z,43.8
2017-08-23T10:02:47.255Z,44.3
2017-08-23T10:03:46.222Z,44.5
2017-08-23T10:04:45.308Z,43.9
2017-08-23T10:05:44.775Z,44.6
2017-08-23T10:06:44.342Z,44.5
2017-08-23T10:07:43.405Z,44.4
2017-08-23T10:08:42.479Z,43.9
2017-08-23T10:09:42.047Z,44.7
2017-08-23T10:10:41.225Z,45.3
2017-08-23T10:11:40.692Z,44.3
2017-08-23T10:12:40.025Z,44.6
2017-08-23T10:13:39.229Z,44.6
2017-08-23T10:14:38.290Z,44.6
2017-08-23T10:15:37.740Z,44.2
2017-08-23T10:16:37.320Z,44.8
2017-08-23T10:17:36.504Z,45.3
2017-08-23T10:18:35.843Z,45.6
2017-08-23T10:19:34.905Z,45
2017-08-23T10:20:34.472Z,45.8
2017-08-23T10:21:33.698Z,46.2
2017-08-23T10:22:33.055Z,45.7
2017-08-23T10:23:32.138Z,45.7
2017-08-23T10:24:31.596Z,46.8
2017-08-23T10:25:31.068Z,45.1
2017-08-23T10:26:30.142Z,44.9
2017-08-23T10:27:29.363Z,44.3
2017-08-23T10:28:28.931Z,46.3
2017-08-23T10:29:27.994Z,45.1
2017-08-23T10:30:27.699Z,44.8
2017-08-23T10:32:26.153Z,44.8
2017-08-23T10:33:25.340Z,44.1
2017-08-23T10:34:24.415Z,44.1
2017-08-23T10:35:23.866Z,44.1
2017-08-23T10:36:23.553Z,44.3
2017-08-23T10:37:22.613Z,44.5
2017-08-23T10:38:21.697Z,43.3
2017-08-23T10:39:21.154Z,43.4
2017-08-23T10:40:20.723Z,42.9
2017-08-23T10:41:19.670Z,43.3
2017-08-23T10:42:19.380Z,43.8
2017-08-23T10:43:18.465Z,44.3
2017-08-23T10:44:17.532Z,44
2017-08-23T10:45:16.875Z,44
2017-08-23T10:46:16.459Z,44.5
2017-08-23T10:47:15.520Z,44
2017-08-23T10:49:14.488Z,44.3
2017-08-23T10:50:13.683Z,43.8
2017-08-23T10:51:12.872Z,44.1
2017-08-23T10:52:12.332Z,44
2017-08-23T10:53:11.412Z,43.7
2017-08-23T10:54:10.995Z,44.3
2017-08-23T10:55:09.950Z,44.4
2017-08-23T10:56:09.643Z,44.2
2017-08-23T10:57:08.830Z,43.2
2017-08-23T10:58:07.907Z,43.6
2017-08-23T10:59:07.480Z,44
2017-08-23T11:00:06.677Z,44
2017-08-23T11:01:06.372Z,44.1
2017-08-23T11:02:05.327Z,43.7
2017-08-23T11:03:04.902Z,43.5
2017-08-23T11:04:03.983Z,43.7
2017-08-23T11:05:03.444Z,43.8
2017-08-23T11:06:02.393Z,43.8
2017-08-23T11:07:01.722Z,43.8
2017-08-23T11:08:01.316Z,42.9
2017-08-23T11:09:00.389Z,42.4
2017-08-23T11:10:00.078Z,42.7
2017-08-23T11:10:59.181Z,43
2017-08-23T11:11:58.873Z,43
2017-08-23T11:12:57.958Z,42.6
2017-08-23T11:13:57.034Z,43.2
2017-08-23T11:14:56.720Z,43.5
2017-08-23T11:15:55.905Z,44.6
2017-08-23T11:17:54.476Z,44.9
2017-08-23T11:18:53.659Z,44.7
2017-08-23T11:19:53.352Z,44.6
2017-08-23T11:20:23.858Z,44.6
2017-08-23T11:20:54.355Z,44.2
2017-08-23T11:21:51.792Z,44.3
2017-08-23T11:22:50.987Z,44.4
2017-08-23T11:25:49.359Z,43.7
2017-08-23T11:26:48.432Z,43
2017-08-23T11:27:47.635Z,43
2017-08-23T11:28:47.339Z,43.3
2017-08-23T11:29:46.408Z,43.3
2017-08-23T11:30:45.867Z,43.1
2017-08-23T11:31:44.931Z,42.7
2017-08-23T11:32:44.396Z,42.1
2017-08-23T11:33:43.477Z,41.4
2017-08-23T11:34:43.163Z,41.8
2017-08-23T11:36:41.736Z,42.7
2017-08-23T11:37:41.307Z,42.9
2017-08-23T11:38:40.496Z,42.1
2017-08-23T11:39:39.672Z,42.1
2017-08-23T11:40:39.129Z,42
2017-08-23T11:41:38.711Z,42
2017-08-23T11:43:37.175Z,42
2017-08-23T11:44:36.136Z,41.4
2017-08-23T11:46:34.984Z,42.2
2017-08-23T11:47:34.452Z,43
2017-08-23T11:48:34.146Z,42.2
2017-08-23T11:49:33.329Z,42.3
2017-08-23T11:50:32.407Z,42.3
2017-08-23T11:51:32.092Z,42.8
2017-08-23T11:53:30.989Z,42.1
2017-08-23T11:54:29.812Z,41.8
2017-08-23T11:55:29.157Z,42.4
2017-08-23T11:56:28.619Z,42.5
2017-08-23T11:57:27.801Z,42.7
2017-08-23T11:58:27.460Z,42.2
2017-08-23T11:59:26.753Z,42.2
2017-08-23T12:00:26.321Z,41.7
2017-08-23T12:01:25.389Z,41.8
2017-08-23T12:02:24.583Z,41.3
2017-08-23T12:04:23.675Z,42
2017-08-23T12:05:22.741Z,41
2017-08-23T12:06:22.313Z,40.3
2017-08-23T12:07:21.380Z,40.7
2017-08-23T12:08:21.064Z,41
2017-08-23T12:09:20.141Z,41
2017-08-23T12:10:19.831Z,41.3
2017-08-23T12:11:19.021Z,41.6
2017-08-23T12:12:18.097Z,41.9
2017-08-23T12:13:17.793Z,42.1
2017-08-23T12:14:17.133Z,41.5
2017-08-23T12:15:16.328Z,41.7
2017-08-23T12:16:15.690Z,41.7
2017-08-23T12:17:15.266Z,41.7
2017-08-23T12:18:14.339Z,42
2017-08-23T12:19:13.924Z,41.8
2017-08-23T12:20:13.109Z,41.8
2017-08-23T12:21:12.552Z,41.4
2017-08-23T12:22:12.257Z,41.8
2017-08-23T12:23:11.437Z,41
2017-08-23T12:24:10.521Z,41
2017-08-23T12:25:09.971Z,41.6
2017-08-23T12:26:09.415Z,41.3
2017-08-23T12:27:09.105Z,42.1
2017-08-23T12:28:08.287Z,42.3
2017-08-23T12:29:07.471Z,41.9
2017-08-23T12:30:07.052Z,42
2017-08-23T12:31:06.242Z,42.5
2017-08-23T12:33:05.372Z,42.8
2017-08-23T12:34:04.558Z,43.3
2017-08-23T12:35:03.741Z,43.3
2017-08-23T12:36:03.440Z,43.2
2017-08-23T12:37:02.659Z,43.8
2017-08-23T12:38:02.221Z,43.9
2017-08-23T12:39:01.412Z,44.3
2017-08-23T12:40:00.990Z,44.5
2017-08-23T12:41:00.186Z,44.7
2017-08-23T12:41:59.868Z,44.1
2017-08-23T12:42:59.047Z,43.1
2017-08-23T12:43:57.992Z,42.3
2017-08-23T12:44:58.004Z,41.9
2017-08-23T12:45:57.069Z,41.7
2017-08-23T12:46:56.753Z,41.3
2017-08-23T12:47:55.961Z,41.3
2017-08-23T12:48:55.662Z,42.7
2017-08-23T12:49:54.598Z,42.4
2017-08-23T12:50:53.930Z,42.5
2017-08-23T12:51:53.263Z,42.1
2017-08-23T12:52:52.725Z,42.1
2017-08-23T12:53:52.423Z,42.1
2017-08-23T12:54:51.499Z,41.6
2017-08-23T12:55:51.190Z,41.8
2017-08-23T12:56:50.380Z,42.3
2017-08-23T12:57:49.834Z,41.9
2017-08-23T12:58:49.403Z,42.2
2017-08-23T12:59:48.992Z,42.4
2017-08-23T13:00:47.956Z,42.7
2017-08-23T13:01:47.646Z,43.1
2017-08-23T13:02:46.832Z,43.4
2017-08-23T13:03:46.285Z,41.7
2017-08-23T13:04:45.968Z,41.7
2017-08-23T13:05:45.301Z,41.5
2017-08-23T13:06:44.371Z,41.6
2017-08-23T13:07:43.810Z,42
2017-08-23T13:08:14.695Z,42
2017-08-23T13:08:45.079Z,42.1
2017-08-23T13:09:15.593Z,42.1
2017-08-23T13:12:41.129Z,41
2017-08-23T13:13:40.222Z,40.6
2017-08-23T13:14:40.250Z,39.1
2017-08-23T13:15:39.434Z,39.3
2017-08-23T13:16:38.375Z,39.7
2017-08-23T13:17:38.059Z,39.3
2017-08-23T13:18:37.634Z,39.1
2017-08-23T13:19:36.720Z,38.9
2017-08-23T13:20:36.290Z,38.9
2017-08-23T13:21:35.918Z,40.4
2017-08-23T13:22:35.241Z,40.5
2017-08-23T13:23:34.416Z,39.9
2017-08-23T13:24:33.867Z,40
2017-08-23T13:25:33.542Z,39.6
2017-08-23T13:26:33.111Z,39.6
2017-08-23T13:27:32.296Z,39.1
2017-08-23T13:28:31.874Z,38.9
2017-08-23T13:29:31.085Z,38.9
2017-08-23T13:30:30.767Z,39.7
2017-08-23T13:31:29.964Z,40.2
2017-08-23T13:32:29.653Z,40.8
2017-08-23T13:33:28.735Z,40.8
2017-08-23T13:34:28.425Z,41.3
2017-08-23T13:35:27.575Z,41.3
2017-08-23T13:36:27.152Z,41.8
2017-08-23T13:37:26.214Z,40.6
2017-08-23T13:38:25.899Z,40.1
2017-08-23T13:39:25.465Z,40.6
2017-08-23T13:40:24.655Z,40.5